Time;durP1;ratioP1;P1;durP2;ratioP2;P2;SDS_P1;SDS_P2;PMS_P1;PMS_P2;Temp;Humidity;BMP_temperature;BMP_pressure;BME280_temperature;BME280_humidity;BME280_pressure;Samples;Min_cycle;Max_cycle;Signal;HPM_P1;HPM_P2
2022/12/01 00:00:01;;;;;;;;;;;;;;;5.18;75.49;102625.38;4913031;29;4799;-93
2022/12/01 00:02:28;;;;;;;;;;;;;;;5.24;75.22;102616.00;4925166;29;3779;-94
2022/12/01 00:04:55;;;;;;;;;;;;;;;5.27;74.94;102613.03;4920525;29;4443;-94
2022/12/01 00:07:21;;;;;;;;;;;;;;;5.20;75.32;102614.53;4918008;29;3764;-94
2022/12/01 00:12:32;;;;;;;;;;;;;;;5.27;74.96;102623.72;4922060;29;4727;-93
2022/12/01 00:14:59;;;;;;;;;;;;;;;5.19;75.44;102621.72;4905102;29;3973;-93
2022/12/01 00:17:26;;;;;;;;;;;;;;;5.20;75.29;102618.06;4918771;29;3999;-93
2022/12/01 00:19:53;;;;;;;;;;;;;;;5.20;75.15;102622.56;4915385;29;4607;-94
2022/12/01 00:22:20;;;;;;;;;;;;;;;5.22;75.17;102617.94;4919059;29;4235;-95
2022/12/01 00:24:46;;;;;;;;;;;;;;;5.23;75.17;102625.84;4920503;29;3909;-94
2022/12/01 00:27:13;;;;;;;;;;;;;;;5.19;75.07;102623.56;4904969;29;4453;-94
2022/12/01 00:29:39;;;;;;;;;;;;;;;5.17;75.42;102618.31;4918186;29;4734;-94
2022/12/01 00:32:06;;;;;;;;;;;;;;;5.11;75.61;102621.53;4904206;29;3886;-93
2022/12/01 00:34:33;;;;;;;;;;;;;;;5.14;75.52;102623.94;4902628;29;3953;-94
2022/12/01 00:37:00;;;;;;;;;;;;;;;5.12;75.63;102623.25;4917112;29;4369;-94
2022/12/01 00:39:27;;;;;;;;;;;;;;;5.19;75.22;102621.72;4915875;29;3828;-93
2022/12/01 00:41:53;;;;;;;;;;;;;;;5.22;75.01;102616.09;4904679;29;4039;-93
2022/12/01 00:44:20;;;;;;;;;;;;;;;5.21;75.03;102618.94;4918580;29;4546;-94
2022/12/01 00:46:47;;;;;;;;;;;;;;;5.12;75.52;102609.88;4922200;29;3860;-93
2022/12/01 00:49:14;;;;;;;;;;;;;;;5.15;75.58;102614.13;4922307;29;3741;-92
2022/12/01 00:51:41;;;;;;;;;;;;;;;5.14;75.44;102615.09;4918594;29;4603;-94
2022/12/01 00:54:07;;;;;;;;;;;;;;;5.12;75.69;102622.41;4918560;29;3902;-94
2022/12/01 00:56:34;;;;;;;;;;;;;;;5.18;75.47;102622.72;4921159;29;3795;-93
2022/12/01 00:59:01;;;;;;;;;;;;;;;5.11;75.64;102623.38;4906658;29;4655;-93
2022/12/01 01:01:27;;;;;;;;;;;;;;;5.07;75.74;102624.63;4919994;29;4763;-93
2022/12/01 01:03:54;;;;;;;;;;;;;;;5.17;75.28;102615.66;4924911;29;3830;-93
2022/12/01 01:06:20;;;;;;;;;;;;;;;5.13;75.46;102619.59;4907144;29;4729;-93
2022/12/01 01:08:47;;;;;;;;;;;;;;;5.12;75.54;102617.91;4922272;29;4092;-94
2022/12/01 01:11:13;;;;;;;;;;;;;;;5.16;75.21;102616.66;4921550;29;3780;-93
2022/12/01 01:13:40;;;;;;;;;;;;;;;5.17;75.22;102615.66;4917353;29;4697;-93
2022/12/01 01:16:07;;;;;;;;;;;;;;;5.19;75.36;102613.69;4918820;29;3743;-93
2022/12/01 01:18:33;;;;;;;;;;;;;;;5.19;75.26;102620.88;4925078;29;3970;-93
2022/12/01 01:21:00;;;;;;;;;;;;;;;5.12;75.33;102622.41;4916989;29;4710;-93
2022/12/01 01:23:26;;;;;;;;;;;;;;;5.13;75.39;102616.06;4923507;29;4709;-93
2022/12/01 01:25:53;;;;;;;;;;;;;;;4.99;75.94;102619.94;4902300;29;4730;-93
2022/12/01 01:28:20;;;;;;;;;;;;;;;5.05;75.70;102622.06;4906290;29;4689;-94
2022/12/01 01:30:47;;;;;;;;;;;;;;;5.04;75.83;102625.72;4919148;29;3977;-93
2022/12/01 01:33:13;;;;;;;;;;;;;;;5.11;75.51;102626.88;4896394;29;3830;-91
2022/12/01 01:35:40;;;;;;;;;;;;;;;5.09;75.78;102633.31;4900587;29;3986;-94
2022/12/01 01:38:07;;;;;;;;;;;;;;;5.05;75.73;102627.41;4913950;29;3807;-94
2022/12/01 01:40:33;;;;;;;;;;;;;;;5.06;75.63;102633.59;4920145;29;4643;-94
2022/12/01 01:43:00;;;;;;;;;;;;;;;5.04;75.57;102627.56;4919182;29;3708;-94
2022/12/01 01:45:27;;;;;;;;;;;;;;;5.08;75.52;102626.31;4906535;29;4846;-94
2022/12/01 01:47:53;;;;;;;;;;;;;;;5.06;75.66;102628.25;4919805;29;4147;-94
2022/12/01 01:50:20;;;;;;;;;;;;;;;4.99;75.96;102627.94;4921506;29;4658;-94
2022/12/01 01:52:47;;;;;;;;;;;;;;;5.00;75.78;102624.31;4919406;29;3794;-94
2022/12/01 01:55:14;;;;;;;;;;;;;;;4.95;75.96;102624.69;4904610;29;4719;-94
2022/12/01 01:57:41;;;;;;;;;;;;;;;5.00;75.97;102625.16;4917890;29;4600;-93
2022/12/01 02:00:07;;;;;;;;;;;;;;;5.00;75.92;102621.66;4919478;29;3961;-94
2022/12/01 02:02:34;;;;;;;;;;;;;;;5.00;75.77;102625.16;4920626;29;4463;-94
2022/12/01 02:05:09;;;;;;;;;;;;;;;5.00;75.81;102622.50;4903878;29;3697;-93
2022/12/01 02:07:36;;;;;;;;;;;;;;;4.96;75.95;102617.53;4919233;29;3968;-94
2022/12/01 02:10:03;;;;;;;;;;;;;;;5.01;75.85;102621.50;4909684;29;3777;-92
2022/12/01 02:12:30;;;;;;;;;;;;;;;4.97;75.92;102619.22;4920205;29;4504;-94
2022/12/01 02:14:57;;;;;;;;;;;;;;;4.97;75.79;102620.09;4921195;29;3743;-94
2022/12/01 02:17:24;;;;;;;;;;;;;;;5.03;75.77;102620.50;4905677;29;3828;-94
2022/12/01 02:19:51;;;;;;;;;;;;;;;4.92;75.99;102616.94;4921750;29;3778;-93
2022/12/01 02:22:17;;;;;;;;;;;;;;;4.94;75.95;102615.00;4921729;29;3957;-94
2022/12/01 02:24:44;;;;;;;;;;;;;;;4.97;75.91;102617.41;4922247;29;3660;-94
2022/12/01 02:27:11;;;;;;;;;;;;;;;4.95;75.85;102610.50;4922248;29;3643;-93
2022/12/01 02:29:38;;;;;;;;;;;;;;;4.96;75.86;102617.53;4920465;29;3832;-93
2022/12/01 02:32:05;;;;;;;;;;;;;;;4.98;75.81;102619.09;4921576;29;2624;-93
2022/12/01 02:34:32;;;;;;;;;;;;;;;5.05;75.47;102615.88;4918936;29;4172;-93
2022/12/01 02:36:58;;;;;;;;;;;;;;;5.10;75.42;102613.66;4918409;29;3848;-95
2022/12/01 02:39:25;;;;;;;;;;;;;;;5.02;75.71;102622.34;4917102;29;3656;-94
2022/12/01 02:41:52;;;;;;;;;;;;;;;5.01;75.62;102623.31;4914061;29;3347;-93
2022/12/01 02:44:19;;;;;;;;;;;;;;;5.04;75.48;102622.22;4916179;29;3733;-92
2022/12/01 02:46:45;;;;;;;;;;;;;;;5.04;75.73;102630.22;4914045;29;3905;-93
2022/12/01 02:49:12;;;;;;;;;;;;;;;5.09;75.49;102625.31;4895626;29;3717;-93
2022/12/01 02:51:38;;;;;;;;;;;;;;;5.13;75.41;102618.75;4897532;29;4623;-94
2022/12/01 02:54:05;;;;;;;;;;;;;;;5.14;75.22;102613.25;4900887;29;4094;-92
2022/12/01 02:56:32;;;;;;;;;;;;;;;5.03;75.58;102615.16;4917090;29;4515;-93
2022/12/01 02:58:58;;;;;;;;;;;;;;;5.01;75.55;102615.31;4915300;29;3717;-94
2022/12/01 03:01:25;;;;;;;;;;;;;;;5.09;75.42;102614.63;4922100;29;4818;-94
2022/12/01 03:03:52;;;;;;;;;;;;;;;5.09;75.45;102620.84;4920458;29;3823;-95
2022/12/01 03:06:19;;;;;;;;;;;;;;;5.10;75.22;102619.84;4905117;29;3780;-92
2022/12/01 03:08:46;;;;;;;;;;;;;;;5.07;75.55;102620.13;4919182;29;3704;-93
2022/12/01 03:11:25;;;;;;;;;;;;;;;5.05;75.42;102622.06;4903631;29;3764;-94
2022/12/01 03:13:52;;;;;;;;;;;;;;;5.10;75.40;102609.16;4903676;29;3869;-95
2022/12/01 03:16:19;;;;;;;;;;;;;;;5.08;75.24;102615.63;4903265;29;3710;-93
2022/12/01 03:18:46;;;;;;;;;;;;;;;5.11;75.25;102615.34;4918009;29;3912;-91
2022/12/01 03:21:13;;;;;;;;;;;;;;;5.12;75.12;102612.56;4903809;29;4463;-94
2022/12/01 03:23:40;;;;;;;;;;;;;;;5.22;75.02;102613.44;4919409;29;3653;-95
2022/12/01 03:26:07;;;;;;;;;;;;;;;5.17;75.06;102612.97;4917760;29;4508;-93
2022/12/01 03:28:33;;;;;;;;;;;;;;;5.18;75.20;102614.69;4915673;29;3644;-93
2022/12/01 03:31:00;;;;;;;;;;;;;;;5.24;74.87;102608.81;4915395;29;3808;-95
2022/12/01 03:33:26;;;;;;;;;;;;;;;5.23;74.78;102616.94;4913765;29;3695;-93
2022/12/01 03:35:53;;;;;;;;;;;;;;;5.25;74.91;102615.00;4904145;29;4803;-92
2022/12/01 03:38:20;;;;;;;;;;;;;;;5.25;74.64;102606.97;4905524;29;4532;-92
2022/12/01 03:40:46;;;;;;;;;;;;;;;5.23;74.77;102608.94;4898739;29;4762;-91
2022/12/01 03:43:13;;;;;;;;;;;;;;;5.23;74.81;102607.13;4914771;29;4604;-92
2022/12/01 03:45:40;;;;;;;;;;;;;;;5.32;74.79;102609.94;4911992;29;4894;-93
2022/12/01 03:48:06;;;;;;;;;;;;;;;5.35;74.31;102607.84;4912010;29;3839;-94
2022/12/01 03:50:33;;;;;;;;;;;;;;;5.36;74.25;102606.88;4920315;29;3803;-94
2022/12/01 03:53:00;;;;;;;;;;;;;;;5.29;74.48;102611.06;4913398;29;4629;-94
2022/12/01 03:55:27;;;;;;;;;;;;;;;5.28;74.62;102611.22;4918333;29;4673;-93
2022/12/01 03:57:53;;;;;;;;;;;;;;;5.24;74.79;102622.16;4914583;29;4406;-93
2022/12/01 04:00:20;;;;;;;;;;;;;;;5.30;74.58;102622.63;4915883;29;4744;-94
2022/12/01 04:02:47;;;;;;;;;;;;;;;5.31;74.60;102613.63;4909508;29;4430;-93
2022/12/01 04:05:14;;;;;;;;;;;;;;;5.39;74.40;102608.44;4898587;29;4243;-92
2022/12/01 04:07:41;;;;;;;;;;;;;;;5.28;74.72;102613.88;4897745;29;3780;-92
2022/12/01 04:10:08;;;;;;;;;;;;;;;5.34;74.51;102616.00;4911563;29;4259;-93
2022/12/01 04:12:33;;;;;;;;;;;;;;;5.27;74.74;102613.03;4905419;29;4120;-92
2022/12/01 04:15:06;;;;;;;;;;;;;;;5.37;74.51;102613.91;4908062;29;4526;-92
2022/12/01 04:17:33;;;;;;;;;;;;;;;5.30;74.71;102610.09;4907749;29;4574;-92
2022/12/01 04:20:00;;;;;;;;;;;;;;;5.36;74.32;102614.91;4908810;29;3674;-94
2022/12/01 04:22:26;;;;;;;;;;;;;;;5.35;74.55;102618.53;4910958;29;4769;-94
2022/12/01 04:24:53;;;;;;;;;;;;;;;5.31;74.51;102609.13;4909235;29;4031;-93
2022/12/01 04:27:19;;;;;;;;;;;;;;;5.33;74.48;102619.69;4901796;29;3830;-92
2022/12/01 04:29:46;;;;;;;;;;;;;;;5.32;74.61;102615.28;4903750;29;4631;-94
2022/12/01 04:32:13;;;;;;;;;;;;;;;5.33;74.63;102619.69;4900423;29;4477;-93
2022/12/01 04:34:40;;;;;;;;;;;;;;;5.32;74.80;102620.63;4901632;29;4607;-91
2022/12/01 04:37:06;;;;;;;;;;;;;;;5.29;74.82;102616.41;4884962;29;4548;-93
2022/12/01 04:39:33;;;;;;;;;;;;;;;5.30;74.49;102615.44;4905943;29;4461;-93
2022/12/01 04:41:59;;;;;;;;;;;;;;;5.36;74.45;102622.91;4900422;29;3833;-93
2022/12/01 04:44:26;;;;;;;;;;;;;;;5.32;74.62;102623.31;4897941;29;4828;-92
2022/12/01 04:46:52;;;;;;;;;;;;;;;5.38;74.34;102614.75;4897480;29;3750;-92
2022/12/01 04:49:19;;;;;;;;;;;;;;;5.26;74.83;102622.03;4900699;29;4159;-92
2022/12/01 04:51:45;;;;;;;;;;;;;;;5.32;74.60;102628.66;4895701;29;4870;-92
2022/12/01 04:54:12;;;;;;;;;;;;;;;5.35;74.64;102620.38;4889660;29;4649;-93
2022/12/01 04:56:39;;;;;;;;;;;;;;;5.27;74.73;102618.38;4895763;29;4168;-92
2022/12/01 04:59:05;;;;;;;;;;;;;;;5.38;74.49;102629.00;4874237;29;4611;-93
2022/12/01 05:01:32;;;;;;;;;;;;;;;5.31;74.68;102626.97;4879397;29;4575;-92
2022/12/01 05:03:58;;;;;;;;;;;;;;;5.28;74.67;102628.09;4884932;29;4701;-93
2022/12/01 05:06:25;;;;;;;;;;;;;;;5.30;74.59;102630.63;4872416;29;4699;-93
2022/12/01 05:08:51;;;;;;;;;;;;;;;5.22;75.04;102620.59;4880228;29;4830;-92
2022/12/01 05:11:18;;;;;;;;;;;;;;;5.21;75.02;102626.94;4889734;29;4657;-91
2022/12/01 05:13:45;;;;;;;;;;;;;;;5.23;74.96;102623.16;4890372;29;4612;-92
2022/12/01 05:16:11;;;;;;;;;;;;;;;5.31;74.56;102621.63;4888912;29;4666;-93
2022/12/01 05:18:38;;;;;;;;;;;;;;;5.23;74.81;102631.19;4891773;29;4491;-92
2022/12/01 05:21:03;;;;;;;;;;;;;;;5.31;74.46;102625.16;4888550;29;4504;-92
2022/12/01 05:23:30;;;;;;;;;;;;;;;5.23;74.80;102619.63;4880700;29;4637;-91
2022/12/01 05:25:56;;;;;;;;;;;;;;;5.23;74.77;102620.50;4875080;29;4760;-93
2022/12/01 05:28:22;;;;;;;;;;;;;;;5.18;75.07;102614.69;4877120;29;4590;-91
2022/12/01 05:30:49;;;;;;;;;;;;;;;5.20;74.98;102617.22;4878466;29;4561;-91
2022/12/01 05:33:16;;;;;;;;;;;;;;;5.20;75.09;102614.53;4888352;29;4369;-93
2022/12/01 05:35:42;;;;;;;;;;;;;;;5.23;74.93;102622.28;4882724;29;4695;-92
2022/12/01 05:38:09;;;;;;;;;;;;;;;5.27;74.91;102613.03;4888256;29;4222;-90
2022/12/01 05:40:35;;;;;;;;;;;;;;;5.19;74.96;102619.06;4870400;29;5243;-93
2022/12/01 05:43:03;;;;;;;;;;;;;;;5.33;74.65;102620.53;4886726;29;4525;-92
2022/12/01 05:45:29;;;;;;;;;;;;;;;5.28;74.66;102619.22;4888209;29;3868;-90
2022/12/01 05:47:56;;;;;;;;;;;;;;;5.27;74.82;102623.72;4884294;29;4446;-93
2022/12/01 05:50:22;;;;;;;;;;;;;;;5.24;74.70;102624.00;4877848;29;4727;-92
2022/12/01 05:52:49;;;;;;;;;;;;;;;5.19;74.99;102629.72;4881001;29;4627;-91
2022/12/01 05:55:15;;;;;;;;;;;;;;;5.18;75.14;102633.41;4890471;29;4800;-90
2022/12/01 05:57:42;;;;;;;;;;;;;;;5.24;74.87;102629.34;4871988;29;4719;-92
2022/12/01 06:00:08;;;;;;;;;;;;;;;5.22;74.95;102623.28;4889286;29;4393;-92
2022/12/01 06:02:35;;;;;;;;;;;;;;;5.19;75.19;102635.06;4888619;29;4971;-92
2022/12/01 06:05:02;;;;;;;;;;;;;;;5.15;75.17;102639.00;4873444;29;4731;-92
2022/12/01 06:07:28;;;;;;;;;;;;;;;5.20;74.93;102641.25;4873418;29;4727;-91
2022/12/01 06:09:55;;;;;;;;;;;;;;;5.17;75.06;102641.53;4872616;29;4678;-92
2022/12/01 06:12:21;;;;;;;;;;;;;;;5.16;75.08;102646.03;4871837;29;4679;-92
2022/12/01 06:14:48;;;;;;;;;;;;;;;5.14;75.17;102647.97;4885379;29;4811;-92
2022/12/01 06:17:15;;;;;;;;;;;;;;;5.14;75.23;102647.97;4882845;29;4656;-92
2022/12/01 06:19:42;;;;;;;;;;;;;;;5.16;75.09;102648.69;4878516;29;4790;-93
2022/12/01 06:22:09;;;;;;;;;;;;;;;5.18;75.03;102657.44;4882220;29;4777;-91
2022/12/01 06:24:35;;;;;;;;;;;;;;;5.17;75.16;102649.53;4889789;29;4626;-91
2022/12/01 06:27:02;;;;;;;;;;;;;;;5.16;75.23;102653.22;4888721;29;4732;-92
2022/12/01 06:29:28;;;;;;;;;;;;;;;5.15;75.11;102654.19;4887462;29;4693;-93
2022/12/01 06:31:55;;;;;;;;;;;;;;;5.12;75.16;102652.63;4886127;29;4766;-92
2022/12/01 06:34:22;;;;;;;;;;;;;;;5.13;75.30;102656.97;4874189;29;4634;-91
2022/12/01 06:36:48;;;;;;;;;;;;;;;5.16;75.12;102661.22;4867164;29;4428;-92
2022/12/01 06:39:15;;;;;;;;;;;;;;;5.14;75.17;102663.16;4888684;29;4825;-92
2022/12/01 06:41:42;;;;;;;;;;;;;;;5.13;75.35;102661.47;4876257;29;4563;-91
2022/12/01 06:44:08;;;;;;;;;;;;;;;5.11;75.12;102663.44;4883742;29;4784;-91
2022/12/01 06:46:35;;;;;;;;;;;;;;;5.06;75.35;102663.84;4883642;29;4798;-91
2022/12/01 06:49:01;;;;;;;;;;;;;;;5.04;75.53;102670.28;4895599;29;4656;-91
2022/12/01 06:51:29;;;;;;;;;;;;;;;5.12;75.16;102659.81;4874914;29;3921;-91
2022/12/01 06:53:55;;;;;;;;;;;;;;;5.13;75.12;102670.34;4884965;29;4669;-92
2022/12/01 06:56:23;;;;;;;;;;;;;;;5.18;75.06;102670.78;4891480;29;4648;-91
2022/12/01 06:58:49;;;;;;;;;;;;;;;5.10;75.30;102673.28;4886487;29;4658;-92
2022/12/01 07:01:16;;;;;;;;;;;;;;;5.06;75.59;102674.53;4879047;29;4573;-92
2022/12/01 07:03:43;;;;;;;;;;;;;;;5.14;75.07;102668.50;4872296;29;3969;-92
2022/12/01 07:06:09;;;;;;;;;;;;;;;5.05;75.32;102663.97;4889819;29;4608;-92
2022/12/01 07:08:36;;;;;;;;;;;;;;;5.00;75.65;102670.56;4892306;29;4627;-91
2022/12/01 07:11:02;;;;;;;;;;;;;;;5.09;75.21;102671.59;4889168;29;4727;-90
2022/12/01 07:13:29;;;;;;;;;;;;;;;5.08;75.31;102669.88;4887995;29;4630;-92
2022/12/01 07:15:56;;;;;;;;;;;;;;;5.04;75.39;102672.97;4864432;29;4772;-90
2022/12/01 07:18:22;;;;;;;;;;;;;;;5.08;75.41;102671.72;4886605;29;4634;-91
2022/12/01 07:20:49;;;;;;;;;;;;;;;5.05;75.36;102674.66;4895375;29;4646;-92
2022/12/01 07:23:16;;;;;;;;;;;;;;;5.02;75.54;102675.75;4889414;29;4595;-91
2022/12/01 07:25:42;;;;;;;;;;;;;;;5.01;75.36;102677.59;4889999;29;3899;-92
2022/12/01 07:28:09;;;;;;;;;;;;;;;5.05;75.33;102678.16;4866487;29;4782;-93
2022/12/01 07:30:35;;;;;;;;;;;;;;;5.05;75.44;102688.84;4896376;29;4719;-89
2022/12/01 07:33:02;;;;;;;;;;;;;;;5.09;75.25;102676.94;4877831;29;4649;-92
2022/12/01 07:35:29;;;;;;;;;;;;;;;4.99;75.45;102682.19;4892431;29;4759;-92
2022/12/01 07:37:55;;;;;;;;;;;;;;;5.02;75.58;102686.44;4893361;29;4596;-91
2022/12/01 07:40:22;;;;;;;;;;;;;;;4.98;75.59;102690.34;4881046;29;4690;-91
2022/12/01 07:42:48;;;;;;;;;;;;;;;5.03;75.41;102687.28;4885921;29;4871;-91
2022/12/01 07:45:15;;;;;;;;;;;;;;;5.06;75.55;102684.34;4889167;29;4883;-94
2022/12/01 07:47:47;;;;;;;;;;;;;;;5.07;75.21;102692.25;4917674;29;1919;-96
2022/12/01 07:50:18;;;;;;;;;;;;;;;5.13;74.97;102698.88;4930120;29;3849;-93
2022/12/01 07:52:48;;;;;;;;;;;;;;;5.10;75.22;102700.00;4917266;29;4121;-95
2022/12/01 07:57:56;;;;;;;;;;;;;;;5.05;75.35;102706.69;4914372;29;1869;-93
2022/12/01 08:00:23;;;;;;;;;;;;;;;5.09;75.23;102706.31;4917684;29;2293;-93
2022/12/01 08:02:53;;;;;;;;;;;;;;;5.09;75.21;102713.47;4913565;29;2311;-93
2022/12/01 08:05:20;;;;;;;;;;;;;;;5.07;75.22;102707.44;4907744;29;4067;-94
2022/12/01 08:07:47;;;;;;;;;;;;;;;5.18;74.88;102721.56;4904291;29;4815;-90
2022/12/01 08:10:14;;;;;;;;;;;;;;;5.13;74.89;102709.56;4896357;29;4766;-92
2022/12/01 08:12:40;;;;;;;;;;;;;;;5.14;75.03;102706.75;4878145;29;4748;-90
2022/12/01 08:15:07;;;;;;;;;;;;;;;5.14;75.11;102711.25;4900360;29;4849;-92
2022/12/01 08:17:34;;;;;;;;;;;;;;;5.19;74.93;102711.72;4881692;29;4842;-92
2022/12/01 08:20:00;;;;;;;;;;;;;;;5.14;74.93;102709.41;4902171;29;4827;-89
2022/12/01 08:22:27;;;;;;;;;;;;;;;5.17;74.80;102711.81;4904925;29;4822;-91
2022/12/01 08:24:54;;;;;;;;;;;;;;;5.23;74.76;102710.47;4902345;29;4731;-90
2022/12/01 08:27:20;;;;;;;;;;;;;;;5.18;74.86;102710.88;4900590;29;4546;-95
2022/12/01 08:29:47;;;;;;;;;;;;;;;5.34;74.22;102709.53;4928129;29;2033;-93
2022/12/01 08:32:14;;;;;;;;;;;;;;;5.29;74.55;102720.63;4902157;29;4622;-93
2022/12/01 08:34:40;;;;;;;;;;;;;;;5.21;74.81;102715.09;4901421;29;3542;-92
2022/12/01 08:37:07;;;;;;;;;;;;;;;5.21;74.88;102715.94;4888555;29;4594;-91
2022/12/01 08:39:33;;;;;;;;;;;;;;;5.33;74.32;102721.22;4902021;29;4976;-91
2022/12/01 08:42:00;;;;;;;;;;;;;;;5.35;74.24;102727.25;4905379;29;4736;-93
2022/12/01 08:44:26;;;;;;;;;;;;;;;5.29;74.62;102722.44;4890988;29;4776;-93
2022/12/01 08:46:53;;;;;;;;;;;;;;;5.25;74.60;102732.56;4889111;29;4912;-92
2022/12/01 08:49:21;;;;;;;;;;;;;;;5.30;74.42;102725.00;4887009;29;4712;-93
2022/12/01 08:51:48;;;;;;;;;;;;;;;5.31;74.44;102729.34;4902092;29;4774;-91
2022/12/01 08:54:14;;;;;;;;;;;;;;;5.31;74.55;102731.19;4907083;29;4856;-94
2022/12/01 08:56:41;;;;;;;;;;;;;;;5.40;74.22;102735.72;4896276;29;4738;-93
2022/12/01 08:59:08;;;;;;;;;;;;;;;5.30;74.60;102741.03;4910290;29;4610;-94
2022/12/01 09:01:34;;;;;;;;;;;;;;;5.32;74.39;102735.53;4900840;29;4607;-94
2022/12/01 09:04:07;;;;;;;;;;;;;;;5.33;74.29;102740.78;4894292;29;5055;-92
2022/12/01 09:06:34;;;;;;;;;;;;;;;5.40;74.23;102744.59;4907337;29;4761;-93
2022/12/01 09:09:00;;;;;;;;;;;;;;;5.38;74.24;102745.69;4893477;29;4891;-93
2022/12/01 09:11:27;;;;;;;;;;;;;;;5.37;74.23;102749.34;4898720;29;5125;-95
2022/12/01 09:13:53;;;;;;;;;;;;;;;5.38;74.23;102751.91;4905423;29;4745;-93
2022/12/01 09:16:20;;;;;;;;;;;;;;;5.34;74.42;102755.81;4901803;29;4798;-92
2022/12/01 09:18:47;;;;;;;;;;;;;;;5.39;74.31;102761.63;4903042;29;4925;-93
2022/12/01 09:21:13;;;;;;;;;;;;;;;5.44;73.98;102751.38;4904310;29;4799;-93
2022/12/01 09:23:40;;;;;;;;;;;;;;;5.40;74.19;102746.44;4891472;29;4935;-93
2022/12/01 09:26:06;;;;;;;;;;;;;;;5.32;74.39;102744.41;4905651;29;4737;-93
2022/12/01 09:28:33;;;;;;;;;;;;;;;5.32;74.50;102751.56;4902755;29;4859;-92
2022/12/01 09:30:59;;;;;;;;;;;;;;;5.37;74.05;102749.34;4900845;29;4785;-94
2022/12/01 09:33:26;;;;;;;;;;;;;;;5.33;74.31;102748.78;4896998;29;4938;-93
2022/12/01 09:35:53;;;;;;;;;;;;;;;5.36;74.28;102759.22;4903549;29;4717;-93
2022/12/01 09:38:19;;;;;;;;;;;;;;;5.33;74.25;102754.13;4905281;29;4694;-93
2022/12/01 09:40:46;;;;;;;;;;;;;;;5.31;74.47;102753.41;4900008;29;4741;-93
2022/12/01 09:43:12;;;;;;;;;;;;;;;5.35;74.32;102751.31;4889935;29;5066;-93
2022/12/01 09:45:39;;;;;;;;;;;;;;;5.35;74.44;102748.63;4905133;29;4727;-93
2022/12/01 09:48:06;;;;;;;;;;;;;;;5.36;74.18;102751.19;4883268;29;4732;-93
2022/12/01 09:50:32;;;;;;;;;;;;;;;5.41;74.20;102748.97;4906173;29;4912;-93
2022/12/01 09:52:59;;;;;;;;;;;;;;;5.33;74.64;102739.94;4900202;29;4741;-92
2022/12/01 09:55:25;;;;;;;;;;;;;;;5.23;75.02;102743.41;4897500;29;4824;-92
2022/12/01 09:57:52;;;;;;;;;;;;;;;5.29;74.61;102741.16;4902417;29;4831;-92
2022/12/01 10:00:18;;;;;;;;;;;;;;;5.28;74.38;102740.31;4885875;29;4643;-93
2022/12/01 10:02:45;;;;;;;;;;;;;;;5.28;74.64;102742.13;4903485;29;4650;-93
2022/12/01 10:05:12;;;;;;;;;;;;;;;5.28;74.65;102736.78;4905247;29;4688;-92
2022/12/01 10:07:38;;;;;;;;;;;;;;;5.33;74.38;102731.91;4899271;29;4587;-93
2022/12/01 10:10:05;;;;;;;;;;;;;;;5.31;74.53;102733.84;4892884;29;4901;-92
2022/12/01 10:12:32;;;;;;;;;;;;;;;5.36;74.48;102723.63;4886092;29;4777;-91
2022/12/01 10:14:58;;;;;;;;;;;;;;;5.28;74.77;102726.94;4887343;29;4704;-92
2022/12/01 10:17:25;;;;;;;;;;;;;;;5.30;74.60;102722.31;4896801;29;4736;-92
2022/12/01 10:19:51;;;;;;;;;;;;;;;5.38;74.43;102732.34;4887817;29;4719;-92
2022/12/01 10:22:18;;;;;;;;;;;;;;;5.32;74.58;102728.38;4890573;29;4995;-92
2022/12/01 10:24:45;;;;;;;;;;;;;;;5.35;74.45;102719.25;4900537;29;4788;-91
2022/12/01 10:27:11;;;;;;;;;;;;;;;5.23;74.91;102719.34;4901176;29;4887;-92
2022/12/01 10:29:38;;;;;;;;;;;;;;;5.21;75.09;102723.97;4901282;29;4809;-92
2022/12/01 10:32:04;;;;;;;;;;;;;;;5.31;74.65;102723.16;4899202;29;4680;-91
2022/12/01 10:34:31;;;;;;;;;;;;;;;5.31;74.59;102721.34;4903378;29;4741;-92
2022/12/01 10:36:57;;;;;;;;;;;;;;;5.30;75.04;102718.81;4901471;29;4796;-92
2022/12/01 10:39:24;;;;;;;;;;;;;;;5.32;74.78;102716.84;4899361;29;4763;-91
2022/12/01 10:41:50;;;;;;;;;;;;;;;5.31;74.46;102717.81;4884265;29;4754;-91
2022/12/01 10:44:17;;;;;;;;;;;;;;;5.25;74.70;102719.19;4900730;29;4820;-91
2022/12/01 10:46:43;;;;;;;;;;;;;;;5.23;74.93;102718.47;4888448;29;5082;-93
2022/12/01 10:49:10;;;;;;;;;;;;;;;5.22;75.13;102714.97;4900353;29;4812;-91
2022/12/01 10:51:37;;;;;;;;;;;;;;;5.31;74.85;102715.16;4902059;29;4767;-92
2022/12/01 10:54:03;;;;;;;;;;;;;;;5.33;74.32;102711.38;4889644;29;4846;-91
2022/12/01 10:56:30;;;;;;;;;;;;;;;5.30;74.58;102711.63;4883679;29;4847;-93
2022/12/01 10:58:56;;;;;;;;;;;;;;;5.27;74.57;102708.41;4902885;29;5027;-91
2022/12/01 11:01:24;;;;;;;;;;;;;;;5.20;74.88;102706.22;4898608;29;4707;-92
2022/12/01 11:03:51;;;;;;;;;;;;;;;5.30;74.76;102710.78;4887473;29;4833;-91
2022/12/01 11:06:18;;;;;;;;;;;;;;;5.22;74.89;102703.44;4901259;29;4922;-92
2022/12/01 11:08:44;;;;;;;;;;;;;;;5.23;74.76;102703.31;4901857;29;5273;-91
2022/12/01 11:11:11;;;;;;;;;;;;;;;5.24;74.71;102699.66;4899457;29;4800;-91
2022/12/01 11:13:38;;;;;;;;;;;;;;;5.17;74.91;102698.47;4903716;29;4544;-90
2022/12/01 11:16:04;;;;;;;;;;;;;;;5.22;74.83;102700.75;4899361;29;4809;-90
2022/12/01 11:18:31;;;;;;;;;;;;;;;5.22;74.84;102703.44;4904545;29;4733;-90
2022/12/01 11:20:57;;;;;;;;;;;;;;;5.29;74.89;102709.94;4903461;29;4778;-92
2022/12/01 11:23:24;;;;;;;;;;;;;;;5.20;74.86;102706.22;4887594;29;4778;-90
2022/12/01 11:25:50;;;;;;;;;;;;;;;5.19;75.12;102698.34;4902320;29;4831;-91
2022/12/01 11:28:17;;;;;;;;;;;;;;;5.12;75.42;102699.88;4903962;29;4765;-92
2022/12/01 11:30:43;;;;;;;;;;;;;;;5.13;75.26;102691.72;4904517;29;4817;-91
2022/12/01 11:33:10;;;;;;;;;;;;;;;5.14;75.38;102696.06;4903315;29;4644;-92
2022/12/01 11:35:37;;;;;;;;;;;;;;;5.14;75.30;102693.41;4904939;29;4814;-91
2022/12/01 11:38:04;;;;;;;;;;;;;;;5.16;75.12;102695.94;4903474;29;4789;-91
2022/12/01 11:40:30;;;;;;;;;;;;;;;5.15;75.18;102687.09;4901907;29;4595;-91
2022/12/01 11:42:57;;;;;;;;;;;;;;;5.08;75.55;102688.59;4904231;29;4971;-92
2022/12/01 11:45:23;;;;;;;;;;;;;;;5.13;75.30;102688.19;4893140;29;4666;-93
2022/12/01 11:47:50;;;;;;;;;;;;;;;5.14;75.25;102684.53;4890021;29;4780;-91
2022/12/01 11:50:16;;;;;;;;;;;;;;;5.15;75.24;102687.09;4906089;29;4789;-90
2022/12/01 11:52:43;;;;;;;;;;;;;;;5.14;75.11;102689.88;4902685;29;4732;-91
2022/12/01 11:55:09;;;;;;;;;;;;;;;5.15;75.31;102688.94;4902640;29;4698;-92
2022/12/01 11:57:36;;;;;;;;;;;;;;;5.12;75.62;102691.84;4900865;29;4816;-91
2022/12/01 12:00:02;;;;;;;;;;;;;;;5.13;75.35;102686.38;4904301;29;4811;-90
2022/12/01 12:02:29;;;;;;;;;;;;;;;5.09;75.47;102682.28;4901099;29;4306;-90
2022/12/01 12:04:55;;;;;;;;;;;;;;;5.20;74.99;102678.66;4891494;29;4702;-90
2022/12/01 12:07:22;;;;;;;;;;;;;;;5.12;75.18;102684.69;4904865;29;5160;-89
2022/12/01 12:09:49;;;;;;;;;;;;;;;5.08;75.48;102679.72;4903175;29;4915;-92
2022/12/01 12:12:15;;;;;;;;;;;;;;;5.07;75.57;102678.03;4886358;29;4796;-91
2022/12/01 12:14:42;;;;;;;;;;;;;;;5.12;75.35;102676.66;4906103;29;5046;-90
2022/12/01 12:17:08;;;;;;;;;;;;;;;5.05;75.75;102678.16;4892696;29;4845;-91
2022/12/01 12:19:35;;;;;;;;;;;;;;;5.06;75.44;102677.19;4887423;29;4820;-92
2022/12/01 12:22:01;;;;;;;;;;;;;;;5.09;75.88;102670.72;4891877;29;4967;-90
2022/12/01 12:24:28;;;;;;;;;;;;;;;5.08;75.46;102669.03;4886883;29;4836;-90
2022/12/01 12:26:54;;;;;;;;;;;;;;;5.10;75.16;102673.28;4889175;29;4734;-92
2022/12/01 12:29:21;;;;;;;;;;;;;;;5.09;75.45;102668.94;4904250;29;4900;-91
2022/12/01 12:31:48;;;;;;;;;;;;;;;5.04;75.65;102667.63;4903518;29;4744;-91
2022/12/01 12:34:14;;;;;;;;;;;;;;;5.06;75.29;102660.31;4892319;29;4852;-91
2022/12/01 12:36:41;;;;;;;;;;;;;;;5.04;75.63;102673.81;4885752;29;4580;-91
2022/12/01 12:39:07;;;;;;;;;;;;;;;5.07;75.44;102667.34;4900815;29;5046;-92
2022/12/01 12:41:34;;;;;;;;;;;;;;;5.07;75.51;102660.19;4893267;29;4836;-91
2022/12/01 12:44:00;;;;;;;;;;;;;;;5.08;75.38;102664.53;4889209;29;4881;-91
2022/12/01 12:46:27;;;;;;;;;;;;;;;5.00;75.60;102673.22;4889857;29;4948;-91
2022/12/01 12:48:53;;;;;;;;;;;;;;;4.99;75.89;102673.34;4895231;29;4668;-90
2022/12/01 12:51:20;;;;;;;;;;;;;;;4.93;75.79;102669.38;4900337;29;4780;-91
2022/12/01 12:53:46;;;;;;;;;;;;;;;4.92;76.03;102665.03;4889543;29;4824;-92
2022/12/01 12:56:13;;;;;;;;;;;;;;;4.95;75.93;102666.59;4886634;29;4879;-89
2022/12/01 12:58:40;;;;;;;;;;;;;;;4.96;75.95;102673.63;4889782;29;4830;-91